Time;durP1;ratioP1;P1;durP2;ratioP2;P2;SDS_P1;SDS_P2;PMS_P1;PMS_P2;Temp;Humidity;BMP_temperature;BMP_pressure;BME280_temperature;BME280_humidity;BME280_pressure;Samples;Min_cycle;Max_cycle;Signal;HPM_P1;HPM_P2
2022/11/08 00:03:05;;;;;;;4.43;4.17;;;11.30;1.00;;;;;;6272773;28;20330;-54
2022/11/08 00:16:11;;;;;;;9.63;4.90;;;11.30;1.00;;;;;;6285239;28;20452;-53
2022/11/08 00:19:14;;;;;;;4.93;4.53;;;11.20;1.00;;;;;;6283167;28;20241;-55
2022/11/08 00:22:18;;;;;;;4.70;4.30;;;11.20;1.00;;;;;;6282789;28;20229;-54
2022/11/08 00:25:20;;;;;;;7.40;4.40;;;11.10;1.00;;;;;;6284675;28;20230;-55
2022/11/08 00:28:25;;;;;;;5.77;4.60;;;11.10;1.00;;;;;;6287968;28;20236;-51
2022/11/08 00:31:27;;;;;;;5.13;4.60;;;11.10;1.00;;;;;;6309101;28;20251;-54
2022/11/08 00:34:37;;;;;;;5.97;4.63;;;11.00;1.00;;;;;;6291764;28;20233;-53
2022/11/08 00:37:40;;;;;;;6.83;4.87;;;11.00;1.00;;;;;;6292090;28;20228;-54
2022/11/08 00:40:43;;;;;;;5.57;4.70;;;11.00;1.00;;;;;;6293312;28;20236;-54
2022/11/08 00:43:50;;;;;;;4.93;4.43;;;10.90;1.00;;;;;;6300581;28;20401;-54
2022/11/08 00:46:53;;;;;;;8.80;6.10;;;10.90;1.00;;;;;;6308441;27;20602;-55
2022/11/08 00:49:56;;;;;;;7.67;5.03;;;10.80;1.00;;;;;;6300884;28;20268;-54
2022/11/08 00:52:59;;;;;;;9.73;4.83;;;10.80;1.00;;;;;;6282616;28;20245;-55
2022/11/08 00:56:03;;;;;;;4.97;4.67;;;10.80;1.00;;;;;;6283584;28;20234;-57
2022/11/08 00:59:10;;;;;;;5.33;4.60;;;10.80;1.00;;;;;;6281459;28;20233;-53
2022/11/08 01:02:13;;;;;;;8.90;4.97;;;10.80;1.00;;;;;;6301112;28;20240;-55
2022/11/08 01:05:16;;;;;;;4.97;4.60;;;10.70;1.00;;;;;;6301565;28;20247;-54
2022/11/08 01:08:21;;;;;;;8.33;5.23;;;10.70;1.00;;;;;;6296369;28;20233;-54
2022/11/08 01:11:25;;;;;;;5.13;4.67;;;10.80;1.00;;;;;;6296277;28;20236;-54
2022/11/08 01:14:29;;;;;;;10.17;5.57;;;10.80;1.00;;;;;;6288633;28;20741;-53
2022/11/08 01:17:32;;;;;;;6.23;5.40;;;10.80;1.00;;;;;;6296550;28;20232;-53
2022/11/08 01:20:38;;;;;;;5.57;4.53;;;10.70;1.00;;;;;;6284137;28;20237;-53
2022/11/08 01:23:42;;;;;;;5.37;4.73;;;10.70;1.00;;;;;;6282593;28;20241;-54
2022/11/08 01:26:45;;;;;;;9.17;5.17;;;10.70;1.00;;;;;;6281989;28;20238;-54
2022/11/08 01:29:49;;;;;;;4.97;4.57;;;10.70;1.00;;;;;;6283450;28;20237;-55
2022/11/08 01:32:52;;;;;;;4.90;4.60;;;10.70;1.00;;;;;;6282405;28;20244;-55
2022/11/08 01:35:55;;;;;;;6.07;5.43;;;10.60;1.00;;;;;;6282718;28;20278;-54
2022/11/08 01:38:59;;;;;;;11.77;5.03;;;10.60;1.00;;;;;;6298068;28;20263;-54
2022/11/08 01:42:02;;;;;;;5.87;5.07;;;10.50;1.00;;;;;;6298432;28;20256;-53
2022/11/08 01:45:10;;;;;;;6.90;4.57;;;10.50;1.00;;;;;;6286127;28;20240;-55
2022/11/08 01:48:14;;;;;;;8.30;4.63;;;10.50;1.00;;;;;;6296128;28;20576;-55
2022/11/08 01:51:21;;;;;;;7.83;4.30;;;10.50;1.00;;;;;;6309438;28;20451;-54
2022/11/08 01:54:30;;;;;;;4.60;4.30;;;10.60;1.00;;;;;;6287925;28;20229;-53
2022/11/08 01:57:39;;;;;;;5.73;4.83;;;10.50;1.00;;;;;;6281090;28;20237;-55
2022/11/08 02:00:43;;;;;;;4.33;4.07;;;10.50;1.00;;;;;;6269906;28;20233;-54
2022/11/08 02:03:47;;;;;;;6.77;4.60;;;10.50;1.00;;;;;;6282971;28;20479;-55
2022/11/08 02:06:50;;;;;;;4.97;4.57;;;10.50;1.00;;;;;;6284340;28;20241;-54
2022/11/08 02:09:55;;;;;;;6.63;4.87;;;10.60;1.00;;;;;;6287239;28;20237;-54
2022/11/08 02:12:59;;;;;;;5.00;4.47;;;10.60;1.00;;;;;;6299585;28;20369;-54
2022/11/08 02:16:11;;;;;;;7.03;4.77;;;10.70;1.00;;;;;;6307877;28;20952;-55
2022/11/08 02:19:26;;;;;;;7.70;4.47;;;10.70;1.00;;;;;;6290024;28;20260;-54
2022/11/08 02:22:38;;;;;;;4.37;3.97;;;10.80;1.00;;;;;;6281404;28;20242;-53
2022/11/08 02:25:43;;;;;;;4.77;4.23;;;10.80;1.00;;;;;;6282782;28;20233;-54
2022/11/08 02:28:47;;;;;;;4.27;3.97;;;10.80;1.00;;;;;;6281434;28;20248;-54
2022/11/08 02:31:50;;;;;;;5.93;4.13;;;10.80;1.00;;;;;;6300938;28;20241;-54
2022/11/08 02:34:57;;;;;;;6.83;4.67;;;10.80;1.00;;;;;;6304857;28;20237;-55
2022/11/08 02:38:01;;;;;;;5.07;4.53;;;10.80;1.00;;;;;;6295832;28;20282;-55
2022/11/08 02:41:06;;;;;;;5.57;4.40;;;10.80;1.00;;;;;;6291607;28;20436;-53
2022/11/08 02:44:09;;;;;;;5.47;4.10;;;10.80;1.00;;;;;;6288054;28;20241;-54
2022/11/08 02:47:11;;;;;;;5.67;4.07;;;10.80;1.00;;;;;;6292108;28;20225;-54
2022/11/08 02:50:14;;;;;;;6.67;4.30;;;10.80;1.00;;;;;;6281342;28;20622;-52
2022/11/08 02:53:18;;;;;;;7.93;4.23;;;10.80;1.00;;;;;;6280677;28;20252;-53
2022/11/08 02:56:22;;;;;;;7.37;4.40;;;10.80;1.00;;;;;;6284767;28;20424;-54
2022/11/08 02:59:25;;;;;;;6.07;4.03;;;10.80;1.00;;;;;;6285778;28;20275;-53
2022/11/08 03:02:29;;;;;;;5.63;4.10;;;10.80;1.00;;;;;;6286209;28;20645;-55
2022/11/08 03:05:32;;;;;;;4.70;4.30;;;10.80;1.00;;;;;;6283935;28;20245;-54
2022/11/08 03:08:36;;;;;;;5.33;4.13;;;10.80;1.00;;;;;;6295412;28;20232;-54
2022/11/08 03:11:40;;;;;;;4.53;4.20;;;10.80;1.00;;;;;;6305674;28;20247;-54
2022/11/08 03:14:45;;;;;;;6.20;4.13;;;10.70;1.00;;;;;;6287062;28;20241;-53
2022/11/08 03:17:49;;;;;;;5.63;4.40;;;10.70;1.00;;;;;;6284960;28;20229;-53
2022/11/08 03:20:53;;;;;;;4.83;4.53;;;10.70;1.00;;;;;;6285071;28;20236;-55
2022/11/08 03:24:00;;;;;;;5.87;4.23;;;10.80;1.00;;;;;;6282495;28;20510;-53
2022/11/08 03:27:04;;;;;;;10.03;4.23;;;10.90;1.00;;;;;;6283118;28;20269;-54
2022/11/08 03:30:08;;;;;;;5.47;4.43;;;10.90;1.00;;;;;;6285563;28;20379;-54
2022/11/08 03:33:11;;;;;;;4.40;4.17;;;10.80;1.00;;;;;;6284464;28;20245;-54
2022/11/08 03:36:14;;;;;;;4.67;4.30;;;10.80;1.00;;;;;;6285130;28;20233;-53
2022/11/08 03:39:23;;;;;;;4.53;4.13;;;10.80;1.00;;;;;;6296571;28;20548;-54
2022/11/08 03:42:28;;;;;;;6.70;4.13;;;10.90;1.00;;;;;;6302138;28;20236;-53
2022/11/08 03:45:30;;;;;;;4.70;4.30;;;10.90;1.00;;;;;;6298422;28;20221;-53
2022/11/08 03:48:33;;;;;;;5.23;4.60;;;10.80;1.00;;;;;;6284759;28;20233;-54
2022/11/08 03:51:36;;;;;;;4.47;3.97;;;10.80;1.00;;;;;;6283939;28;20864;-55
2022/11/08 03:54:39;;;;;;;4.80;4.33;;;10.80;1.00;;;;;;6277716;28;20237;-53
2022/11/08 03:57:45;;;;;;;8.80;5.10;;;10.80;1.00;;;;;;6284084;28;20304;-54
2022/11/08 04:00:48;;;;;;;9.03;4.80;;;10.70;1.00;;;;;;6308035;28;20399;-54
2022/11/08 04:03:50;;;;;;;6.23;5.17;;;10.60;1.00;;;;;;6307114;28;20400;-54
2022/11/08 04:06:53;;;;;;;5.83;4.50;;;10.60;1.00;;;;;;6293667;28;20352;-55
2022/11/08 04:09:56;;;;;;;9.50;4.50;;;10.60;1.00;;;;;;6299461;28;20239;-55
2022/11/08 04:16:22;;;;;;;4.87;4.57;;;10.50;1.00;;;;;;6304300;28;20660;-53
2022/11/08 04:22:45;;;;;;;5.17;4.40;;;10.30;1.00;;;;;;6293901;28;20237;-53
2022/11/08 04:25:59;;;;;;;5.47;5.17;;;10.30;1.00;;;;;;6310296;28;20232;-54
2022/11/08 04:29:03;;;;;;;6.27;4.87;;;10.20;1.00;;;;;;6303348;27;20614;-53
2022/11/08 04:32:06;;;;;;;5.53;5.00;;;10.20;1.00;;;;;;6273662;28;20229;-54
2022/11/08 04:35:09;;;;;;;4.83;4.40;;;10.20;1.00;;;;;;6300083;28;20244;-52
2022/11/08 04:38:11;;;;;;;6.77;4.60;;;10.10;1.00;;;;;;6294908;28;20473;-54
2022/11/08 04:41:16;;;;;;;5.80;5.27;;;10.10;1.00;;;;;;6289161;28;20248;-54
2022/11/08 04:44:20;;;;;;;7.43;4.77;;;10.10;1.00;;;;;;6295782;28;20704;-54
2022/11/08 04:47:23;;;;;;;5.53;5.10;;;10.00;1.00;;;;;;6294733;28;20274;-54
2022/11/08 04:50:26;;;;;;;6.47;5.17;;;10.00;1.00;;;;;;6286898;28;20233;-54
2022/11/08 04:53:29;;;;;;;5.73;5.23;;;9.90;1.00;;;;;;6292800;28;20563;-54
2022/11/08 04:56:32;;;;;;;7.33;5.43;;;9.90;1.00;;;;;;6290420;28;20240;-53
2022/11/08 04:59:36;;;;;;;7.93;5.60;;;9.80;1.00;;;;;;6292393;28;20233;-53
2022/11/08 05:02:39;;;;;;;6.80;6.10;;;9.80;1.00;;;;;;6297777;28;20240;-54
2022/11/08 05:05:42;;;;;;;5.83;5.37;;;9.70;1.00;;;;;;6294041;28;20282;-53
2022/11/08 05:08:45;;;;;;;6.13;5.53;;;9.70;1.00;;;;;;6295703;28;20236;-54
2022/11/08 05:11:47;;;;;;;6.63;5.87;;;9.70;1.00;;;;;;6300949;28;20240;-55
2022/11/08 05:14:52;;;;;;;7.50;5.90;;;9.70;1.00;;;;;;6293853;28;20319;-55
2022/11/08 05:17:54;;;;;;;6.40;5.90;;;9.70;1.00;;;;;;6297157;28;20248;-54
2022/11/08 05:24:27;;;;;;;6.07;5.50;;;9.60;1.00;;;;;;6283760;28;20233;-52
2022/11/08 05:27:31;;;;;;;7.20;6.47;;;9.60;1.00;;;;;;6295557;28;20228;-55
2022/11/08 05:30:35;;;;;;;6.33;5.80;;;9.60;1.00;;;;;;6289397;28;20725;-55
2022/11/08 05:33:38;;;;;;;10.33;6.27;;;9.60;1.00;;;;;;6291783;28;20251;-54
2022/11/08 05:36:41;;;;;;;12.67;6.53;;;9.50;1.00;;;;;;6291902;28;20232;-56
2022/11/08 05:39:44;;;;;;;10.10;6.30;;;9.50;1.00;;;;;;6289274;28;20242;-53
2022/11/08 05:42:47;;;;;;;8.50;6.90;;;9.40;1.00;;;;;;6280986;28;20233;-54
2022/11/08 05:45:51;;;;;;;10.53;6.33;;;9.40;1.00;;;;;;6285713;28;20410;-54
2022/11/08 05:48:54;;;;;;;8.83;6.70;;;9.60;1.00;;;;;;6286806;28;20308;-56
2022/11/08 05:51:57;;;;;;;6.70;6.07;;;9.30;1.00;;;;;;6299139;28;20240;-54
2022/11/08 05:55:00;;;;;;;10.97;7.07;;;9.30;1.00;;;;;;6299556;28;20297;-54
2022/11/08 05:58:03;;;;;;;7.37;6.57;;;9.30;1.00;;;;;;6284003;28;20737;-55
2022/11/08 06:01:10;;;;;;;7.30;6.40;;;9.30;1.00;;;;;;6285450;28;20241;-53
2022/11/08 06:04:12;;;;;;;6.27;5.77;;;9.30;1.00;;;;;;6286474;28;20249;-53
2022/11/08 06:07:15;;;;;;;6.90;6.23;;;9.20;1.00;;;;;;6294241;28;20232;-53
2022/11/08 06:10:18;;;;;;;6.77;5.73;;;9.20;1.00;;;;;;6292098;28;20233;-54
2022/11/08 06:13:21;;;;;;;7.00;6.50;;;9.20;1.00;;;;;;6291018;28;20250;-53
2022/11/08 06:16:25;;;;;;;6.53;5.97;;;9.20;1.00;;;;;;6291089;28;20244;-55
2022/11/08 06:19:28;;;;;;;12.03;7.17;;;9.20;1.00;;;;;;6300308;28;20593;-53
2022/11/08 06:22:32;;;;;;;7.20;6.43;;;9.20;1.00;;;;;;6275858;28;20237;-54
2022/11/08 06:25:36;;;;;;;6.63;6.03;;;9.20;1.00;;;;;;6290472;28;20232;-53
2022/11/08 06:28:39;;;;;;;8.33;6.37;;;9.20;1.00;;;;;;6272697;28;20217;-49
2022/11/08 06:31:43;;;;;;;9.10;6.40;;;9.20;1.00;;;;;;6294211;28;20246;-52
2022/11/08 06:34:47;;;;;;;9.40;6.27;;;9.30;1.00;;;;;;6292055;28;20413;-53
2022/11/08 06:37:51;;;;;;;12.10;6.53;;;9.30;1.00;;;;;;6290861;28;20233;-55
2022/11/08 06:41:02;;;;;;;5.97;5.37;;;9.30;1.00;;;;;;6288969;28;20898;-55
2022/11/08 06:44:05;;;;;;;6.73;6.20;;;9.30;1.00;;;;;;6299862;28;20248;-53
2022/11/08 06:47:09;;;;;;;8.97;6.10;;;9.30;1.00;;;;;;6292392;28;20815;-53
2022/11/08 06:50:12;;;;;;;6.97;5.77;;;9.30;1.00;;;;;;6289574;28;20307;-54
2022/11/08 06:53:15;;;;;;;10.43;7.20;;;9.30;1.00;;;;;;6307266;28;20323;-52
2022/11/08 06:56:18;;;;;;;6.70;6.13;;;9.30;1.00;;;;;;6298352;28;20241;-54
2022/11/08 06:59:21;;;;;;;8.40;6.97;;;9.30;1.00;;;;;;6290055;28;20248;-54
2022/11/08 07:02:25;;;;;;;8.47;6.50;;;9.30;1.00;;;;;;6302122;28;20251;-54
2022/11/08 07:05:31;;;;;;;8.03;6.57;;;9.30;1.00;;;;;;6292615;28;20244;-55
2022/11/08 07:08:35;;;;;;;10.50;7.13;;;9.30;1.00;;;;;;6289452;28;20701;-53
2022/11/08 07:11:38;;;;;;;8.30;6.60;;;9.30;1.00;;;;;;6298171;28;20240;-54
2022/11/08 07:14:42;;;;;;;8.73;6.57;;;9.40;1.00;;;;;;6292448;28;20241;-53
2022/11/08 07:17:46;;;;;;;9.60;5.97;;;9.40;1.00;;;;;;6300660;28;20237;-52
2022/11/08 07:20:49;;;;;;;10.97;6.00;;;9.40;1.00;;;;;;6300766;28;20243;-53
2022/11/08 07:23:54;;;;;;;6.47;6.07;;;9.50;1.00;;;;;;6299989;28;20241;-54
2022/11/08 07:26:57;;;;;;;6.83;6.10;;;9.50;1.00;;;;;;6291845;28;20249;-53
2022/11/08 07:30:00;;;;;;;7.13;6.43;;;9.60;1.00;;;;;;6298335;28;20641;-55
2022/11/08 07:33:05;;;;;;;6.43;5.50;;;9.60;1.00;;;;;;6293500;28;20286;-53
2022/11/08 07:36:08;;;;;;;7.40;6.47;;;9.70;1.00;;;;;;6284340;28;20233;-54
2022/11/08 07:39:11;;;;;;;7.63;6.20;;;9.70;1.00;;;;;;6301002;28;20229;-53
2022/11/08 07:42:14;;;;;;;11.13;6.43;;;9.80;1.00;;;;;;6289389;28;20618;-53
2022/11/08 07:45:17;;;;;;;8.33;6.27;;;9.90;1.00;;;;;;6296535;28;20229;-53
2022/11/08 07:48:21;;;;;;;6.97;6.23;;;10.00;1.00;;;;;;6297370;28;20752;-53
2022/11/08 07:51:24;;;;;;;8.50;7.60;;;10.10;1.00;;;;;;6295226;28;20228;-54
2022/11/08 07:54:26;;;;;;;9.53;6.93;;;10.10;1.00;;;;;;6293344;28;20244;-53
2022/11/08 07:57:29;;;;;;;8.73;6.07;;;10.20;1.00;;;;;;6297194;28;20249;-54
2022/11/08 08:00:36;;;;;;;6.33;5.90;;;10.30;1.00;;;;;;6299362;28;20229;-53
2022/11/08 08:03:40;;;;;;;10.90;6.93;;;10.40;1.00;;;;;;6287034;28;20262;-54
2022/11/08 08:06:43;;;;;;;7.20;5.80;;;10.50;1.00;;;;;;6283996;28;20244;-54
2022/11/08 08:09:45;;;;;;;7.27;5.50;;;10.60;1.00;;;;;;6301862;28;20472;-54
2022/11/08 08:12:48;;;;;;;6.73;5.57;;;10.60;1.00;;;;;;6298209;28;20394;-54
2022/11/08 08:15:51;;;;;;;5.80;5.40;;;10.70;1.00;;;;;;6289437;28;20424;-53
2022/11/08 08:18:56;;;;;;;8.47;5.67;;;10.90;1.00;;;;;;6298662;28;20880;-54
2022/11/08 08:21:58;;;;;;;6.00;5.40;;;10.90;1.00;;;;;;6295825;28;20586;-53
2022/11/08 08:25:01;;;;;;;5.33;4.90;;;11.00;1.00;;;;;;6294572;28;20259;-53
2022/11/08 08:28:05;;;;;;;6.23;5.50;;;11.20;1.00;;;;;;6299350;28;20232;-54
2022/11/08 08:31:08;;;;;;;6.33;5.53;;;11.30;1.00;;;;;;6290934;28;20798;-53
2022/11/08 08:34:14;;;;;;;6.70;5.03;;;11.40;1.00;;;;;;6285049;28;20536;-52
2022/11/08 08:37:17;;;;;;;6.23;5.43;;;11.50;1.00;;;;;;6290008;28;20698;-53
2022/11/08 08:40:20;;;;;;;9.20;5.90;;;11.60;1.00;;;;;;6297888;28;20682;-53
2022/11/08 08:43:23;;;;;;;7.33;5.60;;;11.70;1.00;;;;;;6295003;28;20229;-53
2022/11/08 08:46:26;;;;;;;8.30;5.10;;;11.70;1.00;;;;;;6299279;28;20220;-53
2022/11/08 08:49:30;;;;;;;5.60;5.23;;;11.80;1.00;;;;;;6293029;28;20240;-52
2022/11/08 08:52:32;;;;;;;5.60;5.10;;;12.00;1.00;;;;;;6290289;28;20452;-54
2022/11/08 08:55:35;;;;;;;6.27;5.00;;;12.20;1.00;;;;;;6303899;28;20259;-53
2022/11/08 08:58:38;;;;;;;6.90;5.07;;;12.20;1.00;;;;;;6305392;28;20241;-53
2022/11/08 09:01:41;;;;;;;5.83;5.23;;;12.30;1.00;;;;;;6283367;28;20233;-53
2022/11/08 09:04:45;;;;;;;7.17;5.07;;;12.40;1.00;;;;;;6291596;28;20538;-52
2022/11/08 09:07:48;;;;;;;7.20;4.93;;;12.50;1.00;;;;;;6293551;28;20236;-55
2022/11/08 09:10:53;;;;;;;4.93;4.43;;;12.60;1.00;;;;;;6306713;28;20228;-53
2022/11/08 09:13:56;;;;;;;7.60;6.17;;;12.80;1.00;;;;;;6299174;28;20256;-55
2022/11/08 09:16:59;;;;;;;12.20;6.00;;;12.90;1.00;;;;;;6292256;28;20241;-54
2022/11/08 09:20:03;;;;;;;5.33;4.77;;;13.00;1.00;;;;;;6288025;28;20245;-54
2022/11/08 09:23:06;;;;;;;7.37;5.60;;;13.10;1.00;;;;;;6298580;28;20241;-53
2022/11/08 09:26:10;;;;;;;8.37;5.17;;;13.20;1.00;;;;;;6288520;28;20233;-53
2022/11/08 09:29:13;;;;;;;5.40;4.47;;;13.30;1.00;;;;;;6286413;28;20698;-54
2022/11/08 09:32:16;;;;;;;4.77;4.13;;;13.40;1.00;;;;;;6302264;28;20233;-54
2022/11/08 09:35:36;;;;;;;7.57;4.57;;;13.50;1.00;;;;;;6291540;28;20238;-53
2022/11/08 09:38:40;;;;;;;8.27;4.77;;;13.60;1.00;;;;;;6295319;28;20236;-53
2022/11/08 09:41:59;;;;;;;7.37;4.30;;;13.80;1.00;;;;;;6301199;28;20250;-53
2022/11/08 09:45:18;;;;;;;5.50;4.10;;;13.80;1.00;;;;;;6292851;28;20284;-53
2022/11/08 09:48:26;;;;;;;6.37;4.40;;;14.00;1.00;;;;;;6292237;28;20233;-54
2022/11/08 09:51:33;;;;;;;5.83;5.27;;;14.10;1.00;;;;;;6289680;28;20295;-54
2022/11/08 09:54:43;;;;;;;4.60;4.17;;;14.10;1.00;;;;;;6293824;28;20248;-53
2022/11/08 09:58:09;;;;;;;10.17;4.50;;;14.30;1.00;;;;;;6294349;28;20244;-53
2022/11/08 10:01:13;;;;;;;4.37;4.00;;;14.30;1.00;;;;;;6294113;28;20233;-53
2022/11/08 10:04:23;;;;;;;5.90;3.73;;;14.40;1.00;;;;;;6292928;28;20394;-53
2022/11/08 10:07:34;;;;;;;7.00;4.67;;;14.50;1.00;;;;;;6295890;28;20256;-53
2022/11/08 10:10:54;;;;;;;4.70;3.60;;;14.60;1.00;;;;;;6294702;28;20852;-53
2022/11/08 10:14:09;;;;;;;4.60;3.43;;;14.80;1.00;;;;;;6303653;28;20694;-54
2022/11/08 10:17:35;;;;;;;3.40;3.20;;;14.80;1.00;;;;;;6305632;28;20222;-54
2022/11/08 10:20:50;;;;;;;3.90;3.70;;;14.90;1.00;;;;;;6295263;28;20236;-53
2022/11/08 10:23:58;;;;;;;3.37;3.07;;;15.00;1.00;;;;;;6290533;27;20229;-53
2022/11/08 10:27:22;;;;;;;3.57;3.37;;;15.00;1.00;;;;;;6293706;28;20230;-55
2022/11/08 10:30:31;;;;;;;3.93;3.63;;;15.00;1.00;;;;;;6298529;28;20248;-53
2022/11/08 10:33:42;;;;;;;6.57;3.00;;;15.00;1.00;;;;;;6296931;28;20232;-53
2022/11/08 10:36:47;;;;;;;4.90;3.27;;;15.00;1.00;;;;;;6287729;28;20241;-53
2022/11/08 10:39:56;;;;;;;5.33;3.50;;;15.20;1.00;;;;;;6294361;28;20243;-53
2022/11/08 10:43:05;;;;;;;3.43;3.13;;;15.30;1.00;;;;;;6286973;28;20248;-54
2022/11/08 10:46:21;;;;;;;6.43;3.63;;;15.40;1.00;;;;;;6289840;28;20237;-57
2022/11/08 10:49:26;;;;;;;7.73;4.63;;;15.60;1.00;;;;;;6295808;28;20741;-54
2022/11/08 10:52:37;;;;;;;5.63;4.20;;;15.60;1.00;;;;;;6294064;28;20586;-53
2022/11/08 10:55:49;;;;;;;4.83;3.00;;;15.70;1.00;;;;;;6295469;28;20700;-55
2022/11/08 10:58:52;;;;;;;5.27;2.87;;;15.80;1.00;;;;;;6294365;28;20233;-54
2022/11/08 11:01:55;;;;;;;4.33;3.60;;;15.80;1.00;;;;;;6285763;28;20463;-54
2022/11/08 11:05:23;;;;;;;3.57;3.00;;;15.80;1.00;;;;;;6300441;28;20232;-55
2022/11/08 11:08:26;;;;;;;2.80;2.70;;;15.70;1.00;;;;;;6301609;28;20642;-53
2022/11/08 11:11:39;;;;;;;3.13;2.63;;;15.70;1.00;;;;;;6297267;28;20236;-53
2022/11/08 11:14:42;;;;;;;3.37;2.80;;;15.70;1.00;;;;;;6297478;28;20232;-54
2022/11/08 11:17:46;;;;;;;4.50;3.00;;;15.70;1.00;;;;;;6299884;28;20232;-53
2022/11/08 11:21:09;;;;;;;3.63;3.33;;;15.70;1.00;;;;;;6286076;28;20244;-54
2022/11/08 11:24:18;;;;;;;4.17;3.63;;;15.70;1.00;;;;;;6298682;28;20237;-55
2022/11/08 11:27:28;;;;;;;4.50;2.90;;;15.80;1.00;;;;;;6299120;28;20701;-53
2022/11/08 11:30:32;;;;;;;4.23;3.20;;;15.90;1.00;;;;;;6296256;28;20237;-54
2022/11/08 11:33:44;;;;;;;5.90;3.63;;;16.00;1.00;;;;;;6298273;28;20245;-54
2022/11/08 11:36:52;;;;;;;4.83;3.00;;;16.10;1.00;;;;;;6291481;28;20735;-53
2022/11/08 11:40:03;;;;;;;3.40;2.97;;;16.20;1.00;;;;;;6285653;28;20260;-53
2022/11/08 11:43:14;;;;;;;7.00;3.30;;;16.30;1.00;;;;;;6286411;28;20777;-53
2022/11/08 11:46:24;;;;;;;4.37;3.43;;;16.40;1.00;;;;;;6289265;28;20232;-54
2022/11/08 11:49:29;;;;;;;4.67;3.20;;;16.40;1.00;;;;;;6298964;28;20256;-54
2022/11/08 11:52:32;;;;;;;3.43;3.13;;;16.50;1.00;;;;;;6291671;28;20315;-54
2022/11/08 11:55:50;;;;;;;3.20;3.00;;;16.60;1.00;;;;;;6298259;28;20394;-54
2022/11/08 11:59:12;;;;;;;3.50;3.30;;;16.70;1.00;;;;;;6295562;28;20237;-54
2022/11/08 12:03:00;;;;;;;4.27;3.77;;;16.60;1.00;;;;;;6285778;28;20828;-54
2022/11/08 12:06:14;;;;;;;3.83;3.53;;;16.60;1.00;;;;;;6287174;28;20285;-53
2022/11/08 12:09:34;;;;;;;6.13;4.00;;;16.70;1.00;;;;;;6295401;28;20237;-53
2022/11/08 12:12:50;;;;;;;7.93;3.17;;;16.70;1.00;;;;;;6296836;28;20233;-54
2022/11/08 12:16:01;;;;;;;2.90;2.70;;;16.70;1.00;;;;;;6292499;28;20647;-55
2022/11/08 12:19:20;;;;;;;3.93;2.90;;;16.90;1.00;;;;;;6293813;28;20246;-54
2022/11/08 12:22:45;;;;;;;5.23;3.00;;;16.90;1.00;;;;;;6288237;28;20656;-54
2022/11/08 12:25:57;;;;;;;5.10;3.17;;;16.80;1.00;;;;;;6289024;28;20856;-54
2022/11/08 12:29:10;;;;;;;3.37;3.07;;;16.80;1.00;;;;;;6297839;28;20775;-53
2022/11/08 12:32:23;;;;;;;3.20;2.90;;;16.70;1.00;;;;;;6294547;28;20237;-53
2022/11/08 12:35:38;;;;;;;2.90;2.70;;;16.80;1.00;;;;;;6294862;28;20233;-53
2022/11/08 12:38:55;;;;;;;2.87;2.63;;;16.80;1.00;;;;;;6300204;28;20236;-53
2022/11/08 12:42:13;;;;;;;3.13;2.97;;;16.80;1.00;;;;;;6292142;28;20471;-52
2022/11/08 12:45:43;;;;;;;2.80;2.60;;;16.80;1.00;;;;;;6291009;28;20920;-54
2022/11/08 12:49:21;;;;;;;2.87;2.53;;;16.90;1.00;;;;;;6289020;28;20590;-53
2022/11/08 12:52:37;;;;;;;4.40;3.20;;;16.90;1.00;;;;;;6288238;28;20363;-54
2022/11/08 12:55:43;;;;;;;3.60;3.17;;;16.80;1.00;;;;;;6294901;28;20237;-53
2022/11/08 12:58:49;;;;;;;5.70;3.50;;;16.80;1.00;;;;;;6294229;28;20232;-55
2022/11/08 13:01:53;;;;;;;5.07;2.50;;;16.80;1.00;;;;;;6293589;28;20237;-54
2022/11/08 13:05:06;;;;;;;5.17;2.80;;;16.70;1.00;;;;;;6293792;28;21305;-52
2022/11/08 13:08:17;;;;;;;3.57;2.47;;;16.80;1.00;;;;;;6292214;28;20861;-52
2022/11/08 13:11:26;;;;;;;2.20;2.20;;;16.70;1.00;;;;;;6294674;28;20229;-55
2022/11/08 13:14:29;;;;;;;4.63;3.00;;;16.70;1.00;;;;;;6291501;28;20237;-54
2022/11/08 13:17:32;;;;;;;5.57;3.00;;;16.60;1.00;;;;;;6297997;28;20248;-54
2022/11/08 13:20:43;;;;;;;2.60;2.37;;;16.60;1.00;;;;;;6294355;28;20232;-53
2022/11/08 13:23:46;;;;;;;2.87;2.60;;;16.50;1.00;;;;;;6295665;28;20232;-52
2022/11/08 13:26:49;;;;;;;5.23;2.77;;;16.40;1.00;;;;;;6282975;28;20233;-53
2022/11/08 13:29:52;;;;;;;3.40;2.80;;;16.30;1.00;;;;;;6287356;28;20835;-53
2022/11/08 13:33:00;;;;;;;2.90;2.70;;;16.30;1.00;;;;;;6291431;28;20399;-53
2022/11/08 13:36:19;;;;;;;6.23;3.40;;;16.30;1.00;;;;;;6287660;28;20245;-58
2022/11/08 13:39:48;;;;;;;5.70;2.70;;;16.20;1.00;;;;;;6283946;28;20226;-53
2022/11/08 13:43:28;;;;;;;3.33;2.80;;;16.20;1.00;;;;;;6306361;28;20232;-53
2022/11/08 13:46:48;;;;;;;5.47;3.00;;;16.10;1.00;;;;;;6276757;28;20721;-53
2022/11/08 13:49:50;;;;;;;4.90;3.10;;;16.10;1.00;;;;;;6298670;28;20229;-52
2022/11/08 13:53:05;;;;;;;3.77;2.97;;;16.10;1.00;;;;;;6285647;28;20244;-55
2022/11/08 13:56:43;;;;;;;3.53;3.23;;;16.10;1.00;;;;;;6287300;28;20237;-53
2022/11/08 13:59:57;;;;;;;3.57;3.07;;;16.10;1.00;;;;;;6292069;28;20618;-53
2022/11/08 14:03:02;;;;;;;5.00;3.60;;;16.00;1.00;;;;;;6294012;28;20236;-53
2022/11/08 14:06:13;;;;;;;4.17;3.33;;;16.00;1.00;;;;;;6298051;28;20233;-53
2022/11/08 14:09:28;;;;;;;4.03;3.07;;;15.90;1.00;;;;;;6292712;28;20241;-53
2022/11/08 14:12:50;;;;;;;3.73;3.13;;;15.90;1.00;;;;;;6294613;28;20317;-53
2022/11/08 14:15:58;;;;;;;5.33;2.90;;;15.80;1.00;;;;;;6297878;28;21767;-57
2022/11/08 14:19:21;;;;;;;4.67;3.43;;;15.80;1.00;;;;;;6289430;28;20713;-54
2022/11/08 14:22:26;;;;;;;4.33;3.93;;;15.80;1.00;;;;;;6295672;28;20626;-54
2022/11/08 14:25:34;;;;;;;5.83;4.90;;;15.70;1.00;;;;;;6298743;28;20225;-54
2022/11/08 14:28:40;;;;;;;6.10;3.83;;;15.60;1.00;;;;;;6297381;28;20458;-55
2022/11/08 14:31:43;;;;;;;4.47;4.13;;;15.60;1.00;;;;;;6283204;28;20234;-53
2022/11/08 14:34:46;;;;;;;4.70;4.33;;;15.60;1.00;;;;;;6296322;28;20262;-53
2022/11/08 14:37:49;;;;;;;4.20;3.90;;;15.60;1.00;;;;;;6296373;28;20244;-52
2022/11/08 14:40:55;;;;;;;5.73;3.60;;;15.60;1.00;;;;;;6297586;28;20499;-54
2022/11/08 14:44:00;;;;;;;3.90;3.60;;;15.60;1.00;;;;;;6283329;28;20241;-54
2022/11/08 14:47:04;;;;;;;8.67;3.50;;;15.50;1.00;;;;;;6296470;28;20761;-53
2022/11/08 14:50:16;;;;;;;3.43;3.23;;;15.50;1.00;;;;;;6285935;28;20233;-53
2022/11/08 14:53:23;;;;;;;3.73;3.47;;;15.40;1.00;;;;;;6294557;28;20237;-54
2022/11/08 14:56:28;;;;;;;9.03;3.70;;;15.40;1.00;;;;;;6305854;28;20230;-54
2022/11/08 14:59:31;;;;;;;3.93;3.73;;;15.30;1.00;;;;;;6292828;28;20248;-53
2022/11/08 15:02:34;;;;;;;4.20;4.00;;;15.20;1.00;;;;;;6300633;28;20237;-53
2022/11/08 15:05:40;;;;;;;5.63;4.17;;;15.10;1.00;;;;;;6292647;28;20232;-54
2022/11/08 15:08:49;;;;;;;7.07;4.57;;;15.10;1.00;;;;;;6296087;28;20237;-53
2022/11/08 15:11:58;;;;;;;5.10;4.60;;;15.00;1.00;;;;;;6290097;28;20234;-53
2022/11/08 15:15:01;;;;;;;4.87;3.83;;;14.90;1.00;;;;;;6295021;28;20247;-54
2022/11/08 15:18:13;;;;;;;5.40;4.90;;;14.90;1.00;;;;;;6301605;28;20241;-54
2022/11/08 15:21:26;;;;;;;5.97;4.83;;;14.80;1.00;;;;;;6300676;28;20220;-53
2022/11/08 15:24:36;;;;;;;5.37;4.50;;;14.80;1.00;;;;;;6294793;28;20241;-53
2022/11/08 15:27:47;;;;;;;7.30;6.37;;;14.60;1.00;;;;;;6292368;28;20236;-55
2022/11/08 15:30:55;;;;;;;5.60;5.20;;;14.60;1.00;;;;;;6300877;28;20263;-58
2022/11/08 15:33:58;;;;;;;6.53;5.93;;;14.60;1.00;;;;;;6296362;28;20233;-49
2022/11/08 15:37:01;;;;;;;6.77;5.57;;;14.50;1.00;;;;;;6298169;28;20240;-54
2022/11/08 15:40:06;;;;;;;7.33;5.67;;;14.50;1.00;;;;;;6300538;28;20605;-53
2022/11/08 15:43:34;;;;;;;10.03;6.10;;;14.40;1.00;;;;;;6306184;28;20240;-53
2022/11/08 15:46:37;;;;;;;9.80;6.03;;;14.40;1.00;;;;;;6301209;28;20228;-53
2022/11/08 15:49:44;;;;;;;9.37;6.17;;;14.30;1.00;;;;;;6299217;28;20267;-54
2022/11/08 15:52:48;;;;;;;5.10;4.70;;;14.30;1.00;;;;;;6300434;28;20237;-55
2022/11/08 15:56:12;;;;;;;5.87;4.53;;;14.20;1.00;;;;;;6305890;28;20236;-54
2022/11/08 15:59:18;;;;;;;5.93;5.43;;;14.10;1.00;;;;;;6283567;28;20321;-57
2022/11/08 16:02:24;;;;;;;6.57;5.67;;;14.10;1.00;;;;;;6290173;28;20241;-54
2022/11/08 16:05:30;;;;;;;7.53;5.53;;;14.10;1.00;;;;;;6284367;28;20722;-53
2022/11/08 16:08:33;;;;;;;5.93;5.50;;;14.00;1.00;;;;;;6288357;28;20232;-56
2022/11/08 16:11:40;;;;;;;6.40;5.80;;;14.00;1.00;;;;;;6297607;28;20232;-54
2022/11/08 16:14:44;;;;;;;11.90;5.83;;;14.00;1.00;;;;;;6305713;28;20229;-54
2022/11/08 16:17:47;;;;;;;5.57;5.07;;;13.90;1.00;;;;;;6299875;28;22418;-56
2022/11/08 16:20:50;;;;;;;5.97;5.47;;;13.90;1.00;;;;;;6300358;28;20836;-54
2022/11/08 16:23:53;;;;;;;5.50;5.03;;;13.80;1.00;;;;;;6300172;28;20680;-57
2022/11/08 16:26:56;;;;;;;9.13;7.20;;;13.70;1.00;;;;;;6300449;28;20229;-55
2022/11/08 16:30:00;;;;;;;7.43;6.03;;;13.70;1.00;;;;;;6286542;28;20442;-53
2022/11/08 16:33:19;;;;;;;6.90;6.30;;;13.60;1.00;;;;;;6290398;28;20239;-54
2022/11/08 16:36:24;;;;;;;7.00;6.30;;;13.60;1.00;;;;;;6287522;28;20695;-54
2022/11/08 16:39:27;;;;;;;9.30;7.00;;;13.60;1.00;;;;;;6302128;28;20236;-55
2022/11/08 16:42:30;;;;;;;8.37;6.20;;;13.50;1.00;;;;;;6302323;28;20228;-55
2022/11/08 16:45:35;;;;;;;8.83;7.87;;;13.60;1.00;;;;;;6288207;28;20710;-54
2022/11/08 16:48:59;;;;;;;11.97;9.77;;;13.60;1.00;;;;;;6296588;28;20240;-53